sensor_id;sensor_type;location;lat;lon;timestamp;pressure;altitude;pressure_sealevel;temperature;humidity
22755;BME280;11544;42.020;23.094;2023-01-28T00:01:57;96514.03;;;2.89;100.00
22755;BME280;11544;42.020;23.094;2023-01-28T00:04:24;96516.53;;;2.92;100.00
22755;BME280;11544;42.020;23.094;2023-01-28T00:06:51;96513.13;;;2.90;100.00
22755;BME280;11544;42.020;23.094;2023-01-28T00:09:19;96516.44;;;2.99;100.00
22755;BME280;11544;42.020;23.094;2023-01-28T00:11:46;96521.00;;;2.83;100.00
22755;BME280;11544;42.020;23.094;2023-01-28T00:14:13;96518.63;;;2.69;100.00
22755;BME280;11544;42.020;23.094;2023-01-28T00:16:40;96522.22;;;2.57;100.00
22755;BME280;11544;42.020;23.094;2023-01-28T00:19:07;96525.56;;;2.65;100.00
22755;BME280;11544;42.020;23.094;2023-01-28T00:21:34;96530.09;;;2.48;100.00
22755;BME280;11544;42.020;23.094;2023-01-28T00:24:01;96529.34;;;2.41;100.00
22755;BME280;11544;42.020;23.094;2023-01-28T00:26:28;96536.00;;;2.54;100.00
22755;BME280;11544;42.020;23.094;2023-01-28T00:28:55;96540.22;;;2.60;100.00
22755;BME280;11544;42.020;23.094;2023-01-28T00:31:24;96531.03;;;2.44;100.00
22755;BME280;11544;42.020;23.094;2023-01-28T00:33:53;96533.59;;;2.42;100.00
22755;BME280;11544;42.020;23.094;2023-01-28T00:36:23;96538.81;;;2.36;100.00
22755;BME280;11544;42.020;23.094;2023-01-28T00:38:57;96546.69;;;2.27;100.00
22755;BME280;11544;42.020;23.094;2023-01-28T00:41:28;96547.41;;;2.35;100.00
22755;BME280;11544;42.020;23.094;2023-01-28T00:43:55;96552.78;;;2.18;100.00
22755;BME280;11544;42.020;23.094;2023-01-28T00:46:23;96553.63;;;2.19;100.00
22755;BME280;11544;42.020;23.094;2023-01-28T00:48:52;96562.03;;;2.31;100.00
22755;BME280;11544;42.020;23.094;2023-01-28T00:51:19;96561.97;;;2.36;100.00
22755;BME280;11544;42.020;23.094;2023-01-28T00:53:47;96566.31;;;2.34;100.00
22755;BME280;11544;42.020;23.094;2023-01-28T00:56:15;96562.03;;;2.33;100.00
22755;BME280;11544;42.020;23.094;2023-01-28T00:58:44;96561.28;;;2.25;100.00
22755;BME280;11544;42.020;23.094;2023-01-28T01:01:13;96564.47;;;2.44;100.00
22755;BME280;11544;42.020;23.094;2023-01-28T01:03:42;96558.44;;;2.46;100.00
22755;BME280;11544;42.020;23.094;2023-01-28T01:06:13;96561.88;;;2.44;100.00
22755;BME280;11544;42.020;23.094;2023-01-28T01:08:40;96558.31;;;2.52;100.00
22755;BME280;11544;42.020;23.094;2023-01-28T01:11:10;96560.03;;;2.53;100.00
22755;BME280;11544;42.020;23.094;2023-01-28T01:13:38;96568.66;;;2.49;100.00
22755;BME280;11544;42.020;23.094;2023-01-28T01:16:14;96563.63;;;2.40;100.00
22755;BME280;11544;42.020;23.094;2023-01-28T01:18:42;96567.16;;;2.35;100.00
22755;BME280;11544;42.020;23.094;2023-01-28T01:21:13;96568.00;;;2.35;100.00
22755;BME280;11544;42.020;23.094;2023-01-28T01:23:40;96567.16;;;2.33;100.00
22755;BME280;11544;42.020;23.094;2023-01-28T01:26:07;96572.91;;;2.53;100.00
22755;BME280;11544;42.020;23.094;2023-01-28T01:28:35;96567.81;;;2.47;100.00
22755;BME280;11544;42.020;23.094;2023-01-28T01:31:09;96569.78;;;2.30;100.00
22755;BME280;11544;42.020;23.094;2023-01-28T01:33:36;96556.63;;;2.53;100.00
22755;BME280;11544;42.020;23.094;2023-01-28T01:36:05;96573.91;;;2.42;100.00
22755;BME280;11544;42.020;23.094;2023-01-28T01:38:32;96575.66;;;2.40;100.00
22755;BME280;11544;42.020;23.094;2023-01-28T01:41:02;96578.19;;;2.43;100.00
22755;BME280;11544;42.020;23.094;2023-01-28T01:44:05;96566.81;;;2.59;100.00
22755;BME280;11544;42.020;23.094;2023-01-28T01:46:53;96571.63;;;2.82;100.00
22755;BME280;11544;42.020;23.094;2023-01-28T01:49:22;96569.06;;;2.81;100.00
22755;BME280;11544;42.020;23.094;2023-01-28T01:51:55;96575.31;;;2.64;100.00
22755;BME280;11544;42.020;23.094;2023-01-28T01:54:24;96579.66;;;2.59;100.00
22755;BME280;11544;42.020;23.094;2023-01-28T01:56:52;96581.59;;;2.43;100.00
22755;BME280;11544;42.020;23.094;2023-01-28T01:59:25;96582.34;;;2.51;100.00
22755;BME280;11544;42.020;23.094;2023-01-28T02:01:54;96581.44;;;2.56;100.00
22755;BME280;11544;42.020;23.094;2023-01-28T02:04:24;96590.88;;;2.55;100.00
22755;BME280;11544;42.020;23.094;2023-01-28T02:06:52;96582.06;;;2.73;100.00
22755;BME280;11544;42.020;23.094;2023-01-28T02:09:31;96596.97;;;2.49;100.00
22755;BME280;11544;42.020;23.094;2023-01-28T02:12:02;96590.13;;;2.47;100.00
22755;BME280;11544;42.020;23.094;2023-01-28T02:14:33;96595.44;;;2.35;100.00
22755;BME280;11544;42.020;23.094;2023-01-28T02:17:02;96595.44;;;2.35;100.00
22755;BME280;11544;42.020;23.094;2023-01-28T02:19:57;96601.53;;;2.27;100.00
22755;BME280;11544;42.020;23.094;2023-01-28T02:26:22;96599.66;;;2.40;100.00
22755;BME280;11544;42.020;23.094;2023-01-28T02:31:46;96601.09;;;2.63;100.00
22755;BME280;11544;42.020;23.094;2023-01-28T02:34:20;96601.38;;;2.40;100.00
22755;BME280;11544;42.020;23.094;2023-01-28T02:36:55;96605.69;;;2.39;100.00
22755;BME280;11544;42.020;23.094;2023-01-28T02:39:27;96604.84;;;2.36;100.00
22755;BME280;11544;42.020;23.094;2023-01-28T02:42:05;96604.69;;;2.49;100.00
22755;BME280;11544;42.020;23.094;2023-01-28T02:44:33;96604.03;;;2.33;100.00
22755;BME280;11544;42.020;23.094;2023-01-28T02:47:04;96608.25;;;2.38;100.00
22755;BME280;11544;42.020;23.094;2023-01-28T02:50:16;96607.78;;;2.74;100.00
22755;BME280;11544;42.020;23.094;2023-01-28T02:53:16;96609.59;;;2.66;100.00
22755;BME280;11544;42.020;23.094;2023-01-28T02:56:25;96615.38;;;2.82;100.00
22755;BME280;11544;42.020;23.094;2023-01-28T02:59:10;96618.38;;;2.53;100.00
22755;BME280;11544;42.020;23.094;2023-01-28T03:02:24;96608.81;;;2.63;100.00
22755;BME280;11544;42.020;23.094;2023-01-28T03:05:34;96609.69;;;2.60;100.00
22755;BME280;11544;42.020;23.094;2023-01-28T03:08:06;96613.88;;;2.67;100.00
22755;BME280;11544;42.020;23.094;2023-01-28T03:10:55;96614.97;;;2.51;100.00
22755;BME280;11544;42.020;23.094;2023-01-28T03:13:43;96625.41;;;2.39;100.00
22755;BME280;11544;42.020;23.094;2023-01-28T03:16:33;96630.31;;;2.57;100.00
22755;BME280;11544;42.020;23.094;2023-01-28T03:19:23;96633.75;;;2.54;100.00
22755;BME280;11544;42.020;23.094;2023-01-28T03:22:08;96627.22;;;2.30;100.00
22755;BME280;11544;42.020;23.094;2023-01-28T03:24:54;96627.81;;;2.51;100.00
22755;BME280;11544;42.020;23.094;2023-01-28T03:27:53;96626.31;;;2.33;100.00
22755;BME280;11544;42.020;23.094;2023-01-28T03:30:48;96631.56;;;2.27;100.00
22755;BME280;11544;42.020;23.094;2023-01-28T03:33:36;96630.56;;;2.37;100.00
22755;BME280;11544;42.020;23.094;2023-01-28T03:36:22;96633.19;;;2.31;100.00
22755;BME280;11544;42.020;23.094;2023-01-28T03:39:09;96629.72;;;2.37;100.00
22755;BME280;11544;42.020;23.094;2023-01-28T03:41:36;96628.84;;;2.38;100.00
22755;BME280;11544;42.020;23.094;2023-01-28T03:44:04;96632.03;;;2.55;100.00
22755;BME280;11544;42.020;23.094;2023-01-28T03:46:50;96633.81;;;2.53;100.00
22755;BME280;11544;42.020;23.094;2023-01-28T03:49:17;96624.84;;;2.12;100.00
22755;BME280;11544;42.020;23.094;2023-01-28T03:51:44;96629.91;;;2.21;100.00
22755;BME280;11544;42.020;23.094;2023-01-28T03:54:12;96629.66;;;2.41;100.00
22755;BME280;11544;42.020;23.094;2023-01-28T03:56:39;96636.56;;;2.38;100.00
22755;BME280;11544;42.020;23.094;2023-01-28T03:59:06;96629.84;;;2.27;100.00
22755;BME280;11544;42.020;23.094;2023-01-28T04:01:33;96634.84;;;2.38;100.00
22755;BME280;11544;42.020;23.094;2023-01-28T04:04:00;96639.84;;;2.50;100.00
22755;BME280;11544;42.020;23.094;2023-01-28T04:06:27;96649.38;;;2.42;100.00
22755;BME280;11544;42.020;23.094;2023-01-28T04:08:54;96644.28;;;2.38;100.00
22755;BME280;11544;42.020;23.094;2023-01-28T04:11:25;96640.06;;;2.32;100.00
22755;BME280;11544;42.020;23.094;2023-01-28T04:13:52;96639.19;;;2.33;100.00
22755;BME280;11544;42.020;23.094;2023-01-28T04:16:19;96647.69;;;2.41;100.00
22755;BME280;11544;42.020;23.094;2023-01-28T04:18:46;96642.63;;;2.32;100.00
22755;BME280;11544;42.020;23.094;2023-01-28T04:21:14;96649.53;;;2.28;100.00
22755;BME280;11544;42.020;23.094;2023-01-28T04:23:41;96651.94;;;2.44;100.00
22755;BME280;11544;42.020;23.094;2023-01-28T04:26:07;96644.06;;;2.54;100.00
22755;BME280;11544;42.020;23.094;2023-01-28T04:28:34;96640.84;;;2.39;100.00
22755;BME280;11544;42.020;23.094;2023-01-28T04:31:01;96643.41;;;2.39;100.00
22755;BME280;11544;42.020;23.094;2023-01-28T04:33:29;96648.38;;;2.54;100.00
22755;BME280;11544;42.020;23.094;2023-01-28T04:35:55;96655.28;;;2.50;100.00
22755;BME280;11544;42.020;23.094;2023-01-28T04:38:22;96659.16;;;2.11;100.00
22755;BME280;11544;42.020;23.094;2023-01-28T04:40:53;96652.72;;;2.47;100.00
22755;BME280;11544;42.020;23.094;2023-01-28T04:43:20;96658.59;;;2.57;100.00
22755;BME280;11544;42.020;23.094;2023-01-28T04:45:47;96666.31;;;2.57;100.00
22755;BME280;11544;42.020;23.094;2023-01-28T04:48:15;96660.28;;;2.61;100.00
22755;BME280;11544;42.020;23.094;2023-01-28T04:50:43;96661.34;;;2.43;100.00
22755;BME280;11544;42.020;23.094;2023-01-28T04:53:10;96670.09;;;2.30;100.00
22755;BME280;11544;42.020;23.094;2023-01-28T04:55:37;96674.03;;;2.57;100.00
22755;BME280;11544;42.020;23.094;2023-01-28T04:58:06;96668.09;;;2.52;100.00
22755;BME280;11544;42.020;23.094;2023-01-28T05:00:33;96675.91;;;2.46;100.00
22755;BME280;11544;42.020;23.094;2023-01-28T05:03:04;96677.66;;;2.44;100.00
22755;BME280;11544;42.020;23.094;2023-01-28T05:05:42;96670.78;;;2.44;100.00
22755;BME280;11544;42.020;23.094;2023-01-28T05:08:32;96683.09;;;2.18;100.00
22755;BME280;11544;42.020;23.094;2023-01-28T05:10:59;96682.25;;;2.14;100.00
22755;BME280;11544;42.020;23.094;2023-01-28T05:13:25;96688.91;;;2.35;100.00
22755;BME280;11544;42.020;23.094;2023-01-28T05:15:52;96690.19;;;1.93;100.00
22755;BME280;11544;42.020;23.094;2023-01-28T05:18:19;96697.72;;;2.11;100.00
22755;BME280;11544;42.020;23.094;2023-01-28T05:20:46;96710.72;;;1.97;100.00
22755;BME280;11544;42.020;23.094;2023-01-28T05:23:13;96705.50;;;2.06;100.00
22755;BME280;11544;42.020;23.094;2023-01-28T05:25:40;96701.16;;;2.13;100.00
22755;BME280;11544;42.020;23.094;2023-01-28T05:28:07;96708.88;;;2.11;100.00
22755;BME280;11544;42.020;23.094;2023-01-28T05:30:43;96710.63;;;2.05;100.00
22755;BME280;11544;42.020;23.094;2023-01-28T05:33:10;96709.78;;;2.04;100.00
22755;BME280;11544;42.020;23.094;2023-01-28T05:35:37;96719.41;;;1.87;100.00
22755;BME280;11544;42.020;23.094;2023-01-28T05:38:06;96722.59;;;2.07;100.00
22755;BME280;11544;42.020;23.094;2023-01-28T05:40:36;96720.81;;;2.16;100.00
22755;BME280;11544;42.020;23.094;2023-01-28T05:43:03;96726.06;;;2.05;100.00
22755;BME280;11544;42.020;23.094;2023-01-28T05:45:30;96730.88;;;2.37;100.00
22755;BME280;11544;42.020;23.094;2023-01-28T05:47:57;96737.84;;;2.27;100.00
22755;BME280;11544;42.020;23.094;2023-01-28T05:50:24;96742.53;;;1.85;100.00
22755;BME280;11544;42.020;23.094;2023-01-28T05:52:52;96746.78;;;1.86;100.00
22755;BME280;11544;42.020;23.094;2023-01-28T05:55:19;96750.97;;;2.01;100.00
22755;BME280;11544;42.020;23.094;2023-01-28T05:57:47;96752.63;;;2.07;100.00
22755;BME280;11544;42.020;23.094;2023-01-28T06:00:14;96746.41;;;2.26;100.00
22755;BME280;11544;42.020;23.094;2023-01-28T06:02:42;96748.22;;;2.20;100.00
22755;BME280;11544;42.020;23.094;2023-01-28T06:05:10;96749.88;;;2.24;100.00
22755;BME280;11544;42.020;23.094;2023-01-28T06:07:37;96752.53;;;2.15;100.00
22755;BME280;11544;42.020;23.094;2023-01-28T06:10:05;96756.88;;;2.11;100.00
22755;BME280;11544;42.020;23.094;2023-01-28T06:12:32;96760.34;;;2.07;100.00
22755;BME280;11544;42.020;23.094;2023-01-28T06:14:59;96762.78;;;2.19;100.00
22755;BME280;11544;42.020;23.094;2023-01-28T06:17:26;96772.09;;;2.32;100.00
22755;BME280;11544;42.020;23.094;2023-01-28T06:19:53;96773.69;;;2.44;100.00
22755;BME280;11544;42.020;23.094;2023-01-28T06:22:20;96779.78;;;2.36;100.00
22755;BME280;11544;42.020;23.094;2023-01-28T06:24:47;96780.66;;;2.31;100.00
22755;BME280;11544;42.020;23.094;2023-01-28T06:27:14;96787.56;;;2.26;100.00
22755;BME280;11544;42.020;23.094;2023-01-28T06:29:48;96794.47;;;2.21;100.00
22755;BME280;11544;42.020;23.094;2023-01-28T06:32:15;96793.72;;;2.10;100.00
22755;BME280;11544;42.020;23.094;2023-01-28T06:34:42;96806.69;;;1.99;100.00
22755;BME280;11544;42.020;23.094;2023-01-28T06:37:12;96796.38;;;2.02;100.00
22755;BME280;11544;42.020;23.094;2023-01-28T06:39:39;96802.22;;;2.18;100.00
22755;BME280;11544;42.020;23.094;2023-01-28T06:42:06;96809.00;;;2.28;100.00
22755;BME280;11544;42.020;23.094;2023-01-28T06:44:33;96811.53;;;2.31;100.00
22755;BME280;11544;42.020;23.094;2023-01-28T06:47:00;96818.34;;;2.36;100.00
22755;BME280;11544;42.020;23.094;2023-01-28T06:49:27;96820.97;;;2.32;100.00
22755;BME280;11544;42.020;23.094;2023-01-28T06:51:54;96827.81;;;2.35;100.00
22755;BME280;11544;42.020;23.094;2023-01-28T06:54:21;96831.38;;;2.20;100.00
22755;BME280;11544;42.020;23.094;2023-01-28T06:56:48;96835.69;;;2.15;100.00
22755;BME280;11544;42.020;23.094;2023-01-28T06:59:15;96831.28;;;2.28;100.00
22755;BME280;11544;42.020;23.094;2023-01-28T07:01:42;96839.09;;;2.17;100.00
22755;BME280;11544;42.020;23.094;2023-01-28T07:04:08;96842.59;;;2.07;100.00
22755;BME280;11544;42.020;23.094;2023-01-28T07:06:38;96837.19;;;2.38;100.00
22755;BME280;11544;42.020;23.094;2023-01-28T07:09:05;96847.72;;;2.13;100.00
22755;BME280;11544;42.020;23.094;2023-01-28T07:11:38;96850.22;;;2.22;100.00
22755;BME280;11544;42.020;23.094;2023-01-28T07:14:05;96851.84;;;2.31;100.00
22755;BME280;11544;42.020;23.094;2023-01-28T07:16:32;96848.28;;;2.46;100.00
22755;BME280;11544;42.020;23.094;2023-01-28T07:18:59;96855.13;;;2.45;100.00
22755;BME280;11544;42.020;23.094;2023-01-28T07:21:30;96856.81;;;2.49;100.00
22755;BME280;11544;42.020;23.094;2023-01-28T07:23:57;96856.78;;;2.54;100.00
22755;BME280;11544;42.020;23.094;2023-01-28T07:26:24;96866.34;;;2.41;100.00
22755;BME280;11544;42.020;23.094;2023-01-28T07:28:51;96875.78;;;2.39;100.00
22755;BME280;11544;42.020;23.094;2023-01-28T07:31:18;96882.72;;;2.29;100.00
22755;BME280;11544;42.020;23.094;2023-01-28T07:33:45;96883.63;;;2.24;100.00
22755;BME280;11544;42.020;23.094;2023-01-28T07:36:12;96877.53;;;2.36;100.00
22755;BME280;11544;42.020;23.094;2023-01-28T07:38:39;96884.34;;;2.40;100.00
22755;BME280;11544;42.020;23.094;2023-01-28T07:41:06;96876.72;;;2.29;100.00
22755;BME280;11544;42.020;23.094;2023-01-28T07:43:33;96895.53;;;2.36;100.00
22755;BME280;11544;42.020;23.094;2023-01-28T07:46:00;96888.75;;;2.24;100.00
22755;BME280;11544;42.020;23.094;2023-01-28T07:48:27;96892.16;;;2.32;100.00
22755;BME280;11544;42.020;23.094;2023-01-28T07:50:57;96899.72;;;2.49;100.00
22755;BME280;11544;42.020;23.094;2023-01-28T07:53:24;96898.88;;;2.45;100.00
22755;BME280;11544;42.020;23.094;2023-01-28T07:55:56;96895.31;;;2.63;100.00
22755;BME280;11544;42.020;23.094;2023-01-28T07:58:23;96899.56;;;2.67;100.00
22755;BME280;11544;42.020;23.094;2023-01-28T08:00:50;96905.75;;;2.46;100.00
22755;BME280;11544;42.020;23.094;2023-01-28T08:03:21;96910.03;;;2.44;100.00
22755;BME280;11544;42.020;23.094;2023-01-28T08:05:49;96911.03;;;2.28;100.00
22755;BME280;11544;42.020;23.094;2023-01-28T08:08:17;96909.16;;;2.45;100.00
22755;BME280;11544;42.020;23.094;2023-01-28T08:10:45;96909.13;;;2.53;100.00
22755;BME280;11544;42.020;23.094;2023-01-28T08:13:13;96904.63;;;2.75;100.00
22755;BME280;11544;42.020;23.094;2023-01-28T08:15:41;96910.41;;;3.00;100.00
22755;BME280;11544;42.020;23.094;2023-01-28T08:18:10;96912.91;;;3.06;100.00
22755;BME280;11544;42.020;23.094;2023-01-28T08:20:39;96909.56;;;2.95;100.00
22755;BME280;11544;42.020;23.094;2023-01-28T08:23:17;96916.44;;;2.96;100.00
22755;BME280;11544;42.020;23.094;2023-01-28T08:25:58;96908.63;;;3.04;100.00
22755;BME280;11544;42.020;23.094;2023-01-28T08:28:26;96912.34;;;2.73;100.00
22755;BME280;11544;42.020;23.094;2023-01-28T08:30:53;96909.75;;;2.78;100.00
22755;BME280;11544;42.020;23.094;2023-01-28T08:33:20;96914.84;;;2.83;100.00
22755;BME280;11544;42.020;23.094;2023-01-28T08:35:47;96911.34;;;2.93;100.00
22755;BME280;11544;42.020;23.094;2023-01-28T08:38:14;96912.81;;;3.14;100.00
22755;BME280;11544;42.020;23.094;2023-01-28T08:40:43;96912.75;;;3.20;100.00
22755;BME280;11544;42.020;23.094;2023-01-28T08:43:10;96911.16;;;3.10;100.00
22755;BME280;11544;42.020;23.094;2023-01-28T08:45:38;96918.78;;;3.16;100.00
22755;BME280;11544;42.020;23.094;2023-01-28T08:48:06;96912.59;;;3.34;100.00
22755;BME280;11544;42.020;23.094;2023-01-28T08:50:36;96913.44;;;3.36;100.00
22755;BME280;11544;42.020;23.094;2023-01-28T08:53:09;96919.28;;;3.50;100.00
22755;BME280;11544;42.020;23.094;2023-01-28T08:55:36;96919.69;;;3.15;100.00
22755;BME280;11544;42.020;23.094;2023-01-28T08:58:04;96918.84;;;3.13;100.00
22755;BME280;11544;42.020;23.094;2023-01-28T09:00:36;96924.88;;;3.09;100.00
22755;BME280;11544;42.020;23.094;2023-01-28T09:03:04;96920.38;;;3.31;100.00
22755;BME280;11544;42.020;23.094;2023-01-28T09:05:33;96926.13;;;3.51;100.00
22755;BME280;11544;42.020;23.094;2023-01-28T09:08:08;96921.75;;;3.59;100.00
22755;BME280;11544;42.020;23.094;2023-01-28T09:10:53;96934.13;;;3.99;100.00
22755;BME280;11544;42.020;23.094;2023-01-28T09:13:55;96934.50;;;5.33;100.00
22755;BME280;11544;42.020;23.094;2023-01-28T09:16:25;96934.00;;;4.07;100.00
22755;BME280;11544;42.020;23.094;2023-01-28T09:18:52;96925.84;;;3.74;100.00
22755;BME280;11544;42.020;23.094;2023-01-28T09:21:20;96926.16;;;3.48;100.00
22755;BME280;11544;42.020;23.094;2023-01-28T09:23:47;96930.28;;;3.63;100.00
22755;BME280;11544;42.020;23.094;2023-01-28T09:26:14;96929.91;;;3.92;100.00
22755;BME280;11544;42.020;23.094;2023-01-28T09:28:41;96926.03;;;3.59;100.00
22755;BME280;11544;42.020;23.094;2023-01-28T09:31:11;96930.28;;;3.65;100.00
22755;BME280;11544;42.020;23.094;2023-01-28T09:33:39;96929.59;;;3.49;100.00
22755;BME280;11544;42.020;23.094;2023-01-28T09:36:07;96924.59;;;3.35;100.00
22755;BME280;11544;42.020;23.094;2023-01-28T09:38:36;96925.19;;;3.58;100.00
22755;BME280;11544;42.020;23.094;2023-01-28T09:41:18;96921.22;;;3.31;100.00
22755;BME280;11544;42.020;23.094;2023-01-28T09:46:34;96917.22;;;3.77;100.00
22755;BME280;11544;42.020;23.094;2023-01-28T09:49:08;96919.28;;;3.47;100.00
22755;BME280;11544;42.020;23.094;2023-01-28T09:51:46;96919.50;;;4.00;100.00
22755;BME280;11544;42.020;23.094;2023-01-28T09:54:46;96907.97;;;3.59;100.00
22755;BME280;11544;42.020;23.094;2023-01-28T09:57:28;96913.84;;;3.70;100.00
22755;BME280;11544;42.020;23.094;2023-01-28T09:59:57;96911.28;;;3.72;100.00
22755;BME280;11544;42.020;23.094;2023-01-28T10:02:46;96907.91;;;3.64;98.80
22755;BME280;11544;42.020;23.094;2023-01-28T10:17:11;96889.44;;;3.97;95.29
22755;BME280;11544;42.020;23.094;2023-01-28T10:19:46;96895.38;;;4.01;95.20
22755;BME280;11544;42.020;23.094;2023-01-28T10:22:52;96890.88;;;4.15;95.21
22755;BME280;11544;42.020;23.094;2023-01-28T10:25:27;96892.69;;;4.10;94.91
22755;BME280;11544;42.020;23.094;2023-01-28T10:28:00;96894.34;;;4.14;93.83
22755;BME280;11544;42.020;23.094;2023-01-28T10:30:32;96889.31;;;4.07;93.69
22755;BME280;11544;42.020;23.094;2023-01-28T10:35:38;96889.22;;;4.65;95.09
22755;BME280;11544;42.020;23.094;2023-01-28T10:38:07;96886.13;;;4.43;94.59
22755;BME280;11544;42.020;23.094;2023-01-28T10:40:36;96885.38;;;4.37;92.81
22755;BME280;11544;42.020;23.094;2023-01-28T10:43:02;96885.16;;;4.51;92.29
22755;BME280;11544;42.020;23.094;2023-01-28T10:45:36;96878.16;;;4.59;90.59
22755;BME280;11544;42.020;23.094;2023-01-28T10:48:25;96869.91;;;4.86;88.74
22755;BME280;11544;42.020;23.094;2023-01-28T10:50:57;96875.84;;;4.92;90.31
22755;BME280;11544;42.020;23.094;2023-01-28T10:53:34;96874.38;;;4.77;88.52
22755;BME280;11544;42.020;23.094;2023-01-28T10:56:04;96863.66;;;4.98;87.56
22755;BME280;11544;42.020;23.094;2023-01-28T10:58:33;96856.72;;;5.00;86.62
22755;BME280;11544;42.020;23.094;2023-01-28T11:01:04;96859.38;;;4.99;86.77
22755;BME280;11544;42.020;23.094;2023-01-28T11:03:32;96858.84;;;5.25;85.67
22755;BME280;11544;42.020;23.094;2023-01-28T11:06:01;96859.66;;;5.69;88.19
22755;BME280;11544;42.020;23.094;2023-01-28T11:08:29;96854.66;;;5.61;86.79
22755;BME280;11544;42.020;23.094;2023-01-28T11:10:57;96849.91;;;5.41;86.17
22755;BME280;11544;42.020;23.094;2023-01-28T11:13:28;96861.53;;;5.19;84.95
22755;BME280;11544;42.020;23.094;2023-01-28T11:16:18;96846.13;;;5.56;86.21
22755;BME280;11544;42.020;23.094;2023-01-28T11:18:52;96854.34;;;5.35;85.11
22755;BME280;11544;42.020;23.094;2023-01-28T11:21:25;96854.34;;;5.35;84.18
22755;BME280;11544;42.020;23.094;2023-01-28T11:26:31;96849.88;;;4.98;83.91
22755;BME280;11544;42.020;23.094;2023-01-28T11:28:59;96847.19;;;5.04;85.13
22755;BME280;11544;42.020;23.094;2023-01-28T11:31:27;96851.28;;;5.16;84.26
22755;BME280;11544;42.020;23.094;2023-01-28T11:33:57;96846.31;;;5.05;82.90
22755;BME280;11544;42.020;23.094;2023-01-28T11:36:26;96841.13;;;5.05;83.00
22755;BME280;11544;42.020;23.094;2023-01-28T11:38:56;96847.81;;;5.17;84.19
22755;BME280;11544;42.020;23.094;2023-01-28T11:41:35;96845.94;;;5.25;83.08
22755;BME280;11544;42.020;23.094;2023-01-28T11:44:19;96841.84;;;5.13;81.93
22755;BME280;11544;42.020;23.094;2023-01-28T11:47:12;96843.47;;;5.19;82.79
22755;BME280;11544;42.020;23.094;2023-01-28T11:49:48;96841.69;;;5.22;82.32
22755;BME280;11544;42.020;23.094;2023-01-28T11:58:36;96836.38;;;5.28;82.77
22755;BME280;11544;42.020;23.094;2023-01-28T12:04:20;96832.53;;;5.06;83.46
22755;BME280;11544;42.020;23.094;2023-01-28T12:12:35;96840.72;;;4.81;84.57
22755;BME280;11544;42.020;23.094;2023-01-28T12:15:38;96844.06;;;4.40;83.29
22755;BME280;11544;42.020;23.094;2023-01-28T12:18:34;96839.19;;;4.73;84.21
22755;BME280;11544;42.020;23.094;2023-01-28T12:21:30;96843.38;;;4.77;85.23
22755;BME280;11544;42.020;23.094;2023-01-28T12:30:10;96846.50;;;4.48;83.53
22755;BME280;11544;42.020;23.094;2023-01-28T12:32:31;96849.69;;;4.62;84.10
22755;BME280;11544;42.020;23.094;2023-01-28T12:35:28;96855.53;;;4.73;85.11
22755;BME280;11544;42.020;23.094;2023-01-28T12:38:14;96853.00;;;4.70;85.15
22755;BME280;11544;42.020;23.094;2023-01-28T12:46:23;96862.34;;;4.77;84.05
22755;BME280;11544;42.020;23.094;2023-01-28T12:48:59;96864.25;;;4.66;82.70
22755;BME280;11544;42.020;23.094;2023-01-28T12:51:31;96865.13;;;4.65;83.03
22755;BME280;11544;42.020;23.094;2023-01-28T12:56:39;96867.22;;;4.44;83.32
22755;BME280;11544;42.020;23.094;2023-01-28T12:59:32;96871.63;;;4.38;83.68
22755;BME280;11544;42.020;23.094;2023-01-28T13:17:35;96887.56;;;4.61;83.73
22755;BME280;11544;42.020;23.094;2023-01-28T13:31:14;96901.19;;;4.70;83.83
22755;BME280;11544;42.020;23.094;2023-01-28T13:33:44;96909.97;;;4.59;84.47
22755;BME280;11544;42.020;23.094;2023-01-28T13:36:36;96903.91;;;4.60;84.65
22755;BME280;11544;42.020;23.094;2023-01-28T13:41:45;96903.75;;;4.73;84.10
22755;BME280;11544;42.020;23.094;2023-01-28T13:44:26;96906.94;;;4.87;83.78
22755;BME280;11544;42.020;23.094;2023-01-28T13:47:21;96906.16;;;4.82;83.72
22755;BME280;11544;42.020;23.094;2023-01-28T13:49:55;96905.19;;;4.89;83.21
22755;BME280;11544;42.020;23.094;2023-01-28T13:52:30;96900.56;;;5.05;82.70
22755;BME280;11544;42.020;23.094;2023-01-28T13:55:03;96899.47;;;5.17;83.39
22755;BME280;11544;42.020;23.094;2023-01-28T14:18:25;96909.06;;;5.12;81.97
22755;BME280;11544;42.020;23.094;2023-01-28T14:21:30;96911.50;;;5.19;81.53
22755;BME280;11544;42.020;23.094;2023-01-28T14:24:16;96915.91;;;5.14;80.89
22755;BME280;11544;42.020;23.094;2023-01-28T14:27:00;96926.13;;;5.20;81.08
22755;BME280;11544;42.020;23.094;2023-01-28T14:30:04;96916.81;;;5.12;82.44
22755;BME280;11544;42.020;23.094;2023-01-28T14:32:34;96917.03;;;4.99;82.24
22755;BME280;11544;42.020;23.094;2023-01-28T14:35:06;96920.53;;;4.95;82.63
22755;BME280;11544;42.020;23.094;2023-01-28T14:37:34;96912.53;;;4.61;83.75
22755;BME280;11544;42.020;23.094;2023-01-28T14:40:05;96922.50;;;4.82;83.71
22755;BME280;11544;42.020;23.094;2023-01-28T14:42:36;96919.00;;;4.85;84.54
22755;BME280;11544;42.020;23.094;2023-01-28T14:48:02;96925.09;;;4.81;83.56
22755;BME280;11544;42.020;23.094;2023-01-28T14:53:22;96935.78;;;4.61;84.58
22755;BME280;11544;42.020;23.094;2023-01-28T14:58:32;96946.84;;;4.67;86.50
22755;BME280;11544;42.020;23.094;2023-01-28T15:01:01;96946.97;;;4.60;86.46
22755;BME280;11544;42.020;23.094;2023-01-28T15:03:28;96951.38;;;4.53;86.91
22755;BME280;11544;42.020;23.094;2023-01-28T15:06:13;96955.75;;;4.50;87.54
22755;BME280;11544;42.020;23.094;2023-01-28T15:08:42;96959.03;;;4.58;86.65
22755;BME280;11544;42.020;23.094;2023-01-28T15:11:12;96969.28;;;4.62;87.17
22755;BME280;11544;42.020;23.094;2023-01-28T15:13:51;96966.78;;;4.58;87.55
22755;BME280;11544;42.020;23.094;2023-01-28T15:16:25;96972.91;;;4.52;88.39